首页
METAR-TAF:

METAR-TAF

机场 :

Geilenkirchen, 德国

纬度: 50-57-39N, 经度: 006-2-33E, 海拔: 90米

当前天气观测

该预报发布于55分钟前的00:50 UTC
风速2节,风向西转西北
温度 15°C
湿度 88%
气压 1016 hPa
能见度10公里或以上
1500米以下无云,无积雨云

METAR: ETNG 180050Z 29002KT CAVOK 15/13 Q1016

时间: 03:45 (01:45 UTC)

预报

该预报发布于2小时和45分钟前的23:00 UTC
预报有效从18日的 00点(UTC)到 18日的 15点(UTC)
风速3节,风向多变
能见度10公里或以上
1500米以下无云,无积雨云
几率 30% :
短暂存在
从 18日的 13点(UTC)到 18日的 15点(UTC)
少量云层高于5000英尺, 积雨云.
附近有雷暴

TAF: ETNG 172300Z 1800/1815 VRB03KT CAVOK PROB30 TEMPO 1813/1815 VCTS FEW050CB

超过4000个机场的气象观测和天气预报(METAR&TAF报告)。

可查询的气象台以黄色和红色小点在地图上表示。

将鼠标移到小点上方,可查看气象台名称。

然后点击查看天气观测和预报。

如需切换地图:点击带黑十字的绿色按钮放大地图;点击带横线的绿色按钮缩小地图;或者点击绿色箭头查看邻近地区的地图。


METAR-TAF: